createdAt,value
2019-03-01T00:07:37.475Z,19.90
2019-03-01T00:21:00.322Z,19.90
2019-03-01T00:34:23.260Z,19.90
2019-03-01T01:01:21.628Z,19.90
2019-03-01T01:14:28.941Z,19.80
2019-03-01T01:53:46.085Z,19.80
2019-03-01T02:06:53.434Z,19.80
2019-03-01T02:20:00.808Z,19.80
2019-03-01T02:33:08.146Z,19.80
2019-03-01T02:46:15.564Z,19.80
2019-03-01T02:59:39.409Z,19.80
2019-03-01T03:13:02.283Z,19.80
2019-03-01T03:26:25.086Z,19.80
2019-03-01T03:39:47.853Z,19.80
2019-03-01T03:53:10.724Z,19.80
2019-03-01T04:06:33.540Z,19.80
2019-03-01T04:19:56.347Z,19.70
2019-03-01T04:33:19.126Z,19.70
2019-03-01T04:46:41.923Z,19.70
2019-03-01T05:00:04.742Z,19.70
2019-03-01T05:13:27.566Z,19.70
2019-03-01T05:26:50.399Z,19.70
2019-03-01T05:40:13.196Z,19.70
2019-03-01T05:53:36.024Z,19.70
2019-03-01T06:06:58.882Z,19.70
2019-03-01T06:20:21.636Z,19.70
2019-03-01T06:33:44.475Z,19.70
2019-03-01T06:47:07.276Z,19.90
2019-03-01T07:00:30.085Z,19.70
2019-03-01T07:13:52.927Z,19.70
2019-03-01T07:27:15.768Z,19.60
2019-03-01T07:40:38.559Z,19.60
2019-03-01T07:54:01.338Z,19.60
2019-03-01T08:07:24.295Z,19.40
2019-03-01T08:20:47.022Z,19.70
2019-03-01T08:34:09.796Z,19.60
2019-03-01T08:47:32.615Z,19.60
2019-03-01T09:00:59.010Z,19.60
2019-03-01T09:14:18.289Z,19.50
2019-03-01T09:27:41.082Z,19.50
2019-03-01T09:41:04.394Z,19.50
2019-03-01T09:54:26.730Z,19.50
2019-03-01T10:07:49.525Z,19.50
2019-03-01T10:21:12.359Z,19.50
2019-03-01T10:34:35.156Z,19.50
2019-03-01T10:47:57.970Z,19.50
2019-03-01T11:01:20.810Z,19.50
2019-03-01T11:14:43.619Z,19.50
2019-03-01T11:28:06.426Z,19.50
2019-03-01T11:41:29.302Z,19.40
2019-03-01T11:54:52.044Z,19.50
2019-03-01T12:08:14.866Z,19.50
2019-03-01T12:21:37.673Z,19.50
2019-03-01T12:35:00.487Z,19.40
2019-03-01T12:48:23.327Z,19.50
2019-03-01T13:01:46.139Z,19.40
2019-03-01T13:15:10.602Z,19.50
2019-03-01T13:28:31.742Z,19.40
2019-03-01T13:41:54.583Z,19.40
2019-03-01T13:55:18.619Z,19.50
2019-03-01T14:08:40.224Z,19.40
2019-03-01T14:22:05.275Z,19.40
2019-03-01T15:01:33.960Z,19.40
2019-03-01T15:14:41.281Z,19.40
2019-03-01T15:27:48.605Z,19.40
2019-03-01T15:40:55.943Z,19.50
2019-03-01T15:54:03.252Z,19.50
2019-03-01T16:07:29.042Z,19.50
2019-03-01T16:20:50.093Z,19.40
2019-03-01T16:34:12.877Z,19.40
2019-03-01T16:47:38.182Z,19.40
2019-03-01T17:00:58.522Z,19.40
2019-03-01T17:14:21.352Z,19.40
2019-03-01T17:27:44.195Z,19.40
2019-03-01T17:41:09.553Z,19.40
2019-03-01T17:54:29.800Z,19.40
2019-03-01T18:07:52.618Z,19.40
2019-03-01T18:21:15.379Z,19.40
2019-03-01T18:34:38.217Z,19.50
2019-03-01T18:48:01.040Z,17.20
2019-03-01T19:01:23.881Z,17.80
2019-03-01T19:14:46.778Z,19.00
2019-03-01T19:28:09.574Z,18.60
2019-03-01T19:41:32.415Z,19.30
2019-03-01T19:54:55.237Z,19.50
2019-03-01T20:08:17.976Z,19.60
2019-03-01T20:21:41.369Z,19.60
2019-03-01T20:35:05.146Z,19.60
2019-03-01T21:01:28.262Z,19.60
2019-03-01T21:14:35.685Z,19.60
2019-03-01T21:27:43.044Z,19.60
2019-03-01T21:40:50.462Z,19.50
2019-03-01T21:53:57.778Z,19.60
2019-03-01T22:07:21.416Z,19.60
2019-03-01T22:20:44.761Z,19.50
2019-03-01T22:34:06.998Z,19.50
2019-03-01T22:47:32.408Z,19.50
2019-03-01T23:00:54.434Z,19.50
2019-03-01T23:14:15.429Z,19.50
2019-03-01T23:27:38.274Z,19.50
2019-03-01T23:41:01.059Z,19.40
2019-03-01T23:54:23.867Z,19.40
